This is the latest recevied weather packets stored in our database for station/object EFHK. If no packets are shown the sender has not sent any weather packets the latest 1 day(s).
| Time | Temp. | Humidity | Pressure | Rain* | Wind** | Luminosity | Snow |
|---|---|---|---|---|---|---|---|
| 1778076201 | 10° C | 34% | 1017.3 hPa | - | - | - | - |
| 1778075000 | 10.56° C | 27% | 1013 hPa | - | - | - | - |
| 1778074398 | 10.56° C | 27% | 1013 hPa | - | - | - | - |
| 1778073800 | 10.56° C | 27% | 1013 hPa | - | - | - | - |
| 1778073203 | 10° C | 25% | 1013 hPa | - | - | - | - |
| 1778072604 | 10° C | 25% | 1013 hPa | - | - | - | - |
| 1778072000 | 10° C | 25% | 1013 hPa | - | - | - | - |
| 1778070800 | 10° C | 27% | 1016.6 hPa | - | - | - | - |
| 1778070203 | 10° C | 27% | 1016.6 hPa | - | - | - | - |
| 1778068402 | 10.56° C | 23% | 1013 hPa | - | - | - | - |
| 1778067200 | 11.67° C | 23% | 1015.9 hPa | - | - | - | - |
| 1778066605 | 11.67° C | 23% | 1013 hPa | - | - | - | - |
| 1778066004 | 10° C | 25% | 1013 hPa | - | - | - | - |
| 1778065401 | 10° C | 25% | 1013 hPa | - | - | - | - |
| 1778064204 | 10.56° C | 25% | 1013 hPa | - | - | - | - |
| 1778062402 | 10° C | 27% | 1013 hPa | - | - | - | - |
| 1778061803 | 10° C | 27% | 1013 hPa | - | - | - | - |
| 1778060003 | 10° C | 29% | 1013 hPa | - | - | - | - |
| 1778058802 | 8.89° C | 34% | 1012 hPa | - | - | - | - |
| 1778057007 | 7.78° C | 36% | 1012 hPa | - | - | - | - |
| 1778056402 | 7.78° C | 36% | 1012 hPa | - | - | - | - |
| 1778055801 | 7.78° C | 36% | 1012 hPa | - | - | - | - |
| 1778053999 | 8.89° C | 36% | 1012 hPa | - | - | - | - |
| 1778052801 | 8.89° C | 39% | 1012 hPa | - | - | - | - |
| 1778051003 | 6.67° C | 48% | 1012 hPa | - | - | - | - |
* Rain since midnight (hover to see other rain measurements)
** Current wind speed in m/s (hover to see current wind gust speed)